createdAt,value
2017-10-18T18:01:29.171Z,34.30
2017-10-18T18:04:03.100Z,34.20
2017-10-18T18:12:19.540Z,34.40
2017-10-18T18:14:48.768Z,36.60
2017-10-18T18:17:19.020Z,36.70
2017-10-18T18:19:46.553Z,35.10
2017-10-18T18:22:15.809Z,41.40
2017-10-18T18:27:23.615Z,37.07
2017-10-18T18:30:31.567Z,34.23
2017-10-18T18:33:00.363Z,33.27
2017-10-18T18:35:42.515Z,31.73
2017-10-18T18:38:10.122Z,30.90
2017-10-18T18:40:38.674Z,31.77
2017-10-18T18:43:06.207Z,30.57
2017-10-18T18:45:33.835Z,31.67
2017-10-18T18:48:03.219Z,32.53
2017-10-18T18:50:30.796Z,32.60
2017-10-18T18:52:59.171Z,33.43
2017-10-18T18:55:27.060Z,29.17
2017-10-18T18:57:54.634Z,30.40
2017-10-18T19:00:22.263Z,31.33
2017-10-18T19:02:51.660Z,31.23
2017-10-18T19:05:21.205Z,33.50
2017-10-18T19:07:48.830Z,30.57
2017-10-18T19:10:16.499Z,31.77
2017-10-18T19:12:44.804Z,30.13
2017-10-18T19:15:14.060Z,31.80
2017-10-18T19:17:41.587Z,29.50
2017-10-18T19:20:09.132Z,31.27
2017-10-18T19:22:36.863Z,30.00
2017-10-18T19:25:05.163Z,27.60
2017-10-18T19:27:32.704Z,29.00
2017-10-18T19:30:00.639Z,29.90
2017-10-18T19:32:29.223Z,29.20
2017-10-18T19:34:56.835Z,29.13
2017-10-18T19:37:26.475Z,31.87
2017-10-18T19:39:54.061Z,30.87
2017-10-18T19:42:21.657Z,29.26
2017-10-18T19:44:50.190Z,30.67
2017-10-18T19:47:17.819Z,28.27
2017-10-18T19:49:45.452Z,31.03
2017-10-18T19:52:23.757Z,28.38
2017-10-18T19:58:44.970Z,27.00
2017-10-18T20:01:12.712Z,28.25
2017-10-18T20:03:41.152Z,27.03
2017-10-18T20:06:08.784Z,24.90
2017-10-18T20:08:37.095Z,26.17
2017-10-18T20:11:04.633Z,27.00
2017-10-18T20:13:32.976Z,27.07
2017-10-18T20:16:00.552Z,27.77
2017-10-18T20:18:28.091Z,31.70
2017-10-18T20:20:55.660Z,29.07
2017-10-18T20:23:23.204Z,28.37
2017-10-18T20:25:50.731Z,29.37
2017-10-18T20:28:18.319Z,30.00
2017-10-18T20:30:45.850Z,28.80
2017-10-18T20:33:25.440Z,27.83
2017-10-18T20:39:26.571Z,28.60
2017-10-18T20:41:54.151Z,27.17
2017-10-18T20:44:21.723Z,29.07
2017-10-18T20:46:49.355Z,27.83
2017-10-18T20:49:16.959Z,27.73
2017-10-18T20:51:44.500Z,29.17
2017-10-18T20:54:12.063Z,28.90
2017-10-18T20:56:39.655Z,30.70
2017-10-18T20:59:07.979Z,34.10
2017-10-18T21:01:35.640Z,27.45
2017-10-18T21:04:03.720Z,29.63
2017-10-18T21:06:31.267Z,28.57
2017-10-18T21:08:59.134Z,26.83
2017-10-18T21:11:26.671Z,26.63
2017-10-18T21:13:55.036Z,27.33
2017-10-18T21:16:22.611Z,26.75
2017-10-18T21:18:50.163Z,27.60
2017-10-18T21:21:18.516Z,29.03
2017-10-18T21:23:46.084Z,27.33
2017-10-18T21:26:15.441Z,25.80
2017-10-18T21:28:42.992Z,26.67
2017-10-18T21:31:10.613Z,27.37
2017-10-18T21:33:38.156Z,27.30
2017-10-18T21:36:05.695Z,27.90
2017-10-18T21:38:33.299Z,26.95
2017-10-18T21:41:00.875Z,26.70
2017-10-18T21:43:28.472Z,26.77
2017-10-18T21:45:56.046Z,26.37
2017-10-18T21:48:23.659Z,32.20
2017-10-18T21:50:51.203Z,28.27
2017-10-18T21:53:19.571Z,28.00
2017-10-18T21:55:47.339Z,25.67
2017-10-18T21:58:15.536Z,25.35
2017-10-18T22:00:43.098Z,27.63
2017-10-18T22:03:10.745Z,25.83
2017-10-18T22:05:39.545Z,25.47
2017-10-18T22:08:07.979Z,24.30
2017-10-18T22:10:35.523Z,28.40
2017-10-18T22:13:03.062Z,27.00
2017-10-18T22:15:30.707Z,28.08
2017-10-18T22:17:59.101Z,27.80
2017-10-18T22:20:26.699Z,26.57
2017-10-18T22:22:54.282Z,25.43
2017-10-18T22:25:21.810Z,25.23
2017-10-18T22:27:49.348Z,24.47
2017-10-18T22:30:16.999Z,24.97
2017-10-18T22:32:44.611Z,24.48
2017-10-18T22:35:12.148Z,23.90
2017-10-18T22:37:39.791Z,22.27
2017-10-18T22:40:07.362Z,24.07
2017-10-18T22:42:34.991Z,24.00
2017-10-18T22:45:03.372Z,24.03
2017-10-18T22:47:30.935Z,24.50
2017-10-18T22:49:58.476Z,23.00
2017-10-18T22:52:26.807Z,22.08
2017-10-18T22:54:54.347Z,22.10
2017-10-18T22:57:21.887Z,23.10
2017-10-18T22:59:49.488Z,22.42
2017-10-18T23:02:17.018Z,22.53
2017-10-18T23:04:44.552Z,22.30
2017-10-18T23:07:12.255Z,22.77
2017-10-18T23:09:39.808Z,22.47
2017-10-18T23:12:07.660Z,22.15
2017-10-18T23:14:35.217Z,20.40
2017-10-18T23:17:02.752Z,22.50
2017-10-18T23:19:30.370Z,23.00
2017-10-18T23:21:58.011Z,22.73
2017-10-18T23:24:25.596Z,20.80
2017-10-18T23:26:53.140Z,19.87
2017-10-18T23:29:20.715Z,20.08
2017-10-18T23:31:48.248Z,20.30
2017-10-18T23:34:16.488Z,20.98
2017-10-18T23:36:44.132Z,21.10
2017-10-18T23:39:11.753Z,22.53
2017-10-18T23:41:39.290Z,22.10
2017-10-18T23:44:07.795Z,21.20
2017-10-18T23:46:35.332Z,18.90
2017-10-18T23:49:03.672Z,20.83
2017-10-18T23:51:31.252Z,23.27
2017-10-18T23:53:58.787Z,21.57
2017-10-18T23:56:26.324Z,20.85
2017-10-18T23:58:53.879Z,20.60
